sensor_id;sensor_type;location;lat;lon;timestamp;pressure;altitude;pressure_sealevel;temperature;humidity
52927;BME280;40783;49.710;8.842;2022-07-24T07:00:54;99447.38;;;23.47;59.08
52927;BME280;40783;49.710;8.842;2022-07-24T07:03:20;99444.06;;;23.69;59.03
52927;BME280;40783;49.710;8.842;2022-07-24T07:05:48;99451.63;;;23.91;59.08
52927;BME280;40783;49.710;8.842;2022-07-24T07:08:16;99451.91;;;23.89;55.63
52927;BME280;40783;49.710;8.842;2022-07-24T07:10:41;99440.13;;;24.12;55.50
52927;BME280;40783;49.710;8.842;2022-07-24T07:13:09;99436.44;;;24.19;57.05
52927;BME280;40783;49.710;8.842;2022-07-24T07:15:37;99437.84;;;24.21;56.72
52927;BME280;40783;49.710;8.842;2022-07-24T07:18:05;99437.44;;;24.41;58.89
52927;BME280;40783;49.710;8.842;2022-07-24T07:20:33;99434.56;;;24.48;57.56
52927;BME280;40783;49.710;8.842;2022-07-24T07:22:58;99429.88;;;24.72;56.22
52927;BME280;40783;49.710;8.842;2022-07-24T07:25:23;99434.34;;;24.79;55.23
52927;BME280;40783;49.710;8.842;2022-07-24T07:27:49;99441.50;;;24.39;58.68
52927;BME280;40783;49.710;8.842;2022-07-24T07:30:14;99436.50;;;24.36;56.71
52927;BME280;40783;49.710;8.842;2022-07-24T07:32:40;99431.63;;;24.67;56.93
52927;BME280;40783;49.710;8.842;2022-07-24T07:35:06;99439.19;;;24.48;57.35
52927;BME280;40783;49.710;8.842;2022-07-24T07:37:32;99433.59;;;24.54;55.59
52927;BME280;40783;49.710;8.842;2022-07-24T07:39:57;99431.28;;;24.63;57.97
52927;BME280;40783;49.710;8.842;2022-07-24T07:42:23;99432.31;;;24.86;54.27
52927;BME280;40783;49.710;8.842;2022-07-24T07:44:48;99437.72;;;25.15;54.90
52927;BME280;40783;49.710;8.842;2022-07-24T07:47:14;99433.13;;;25.03;55.60
52927;BME280;40783;49.710;8.842;2022-07-24T07:49:39;99429.94;;;25.41;56.08
52927;BME280;40783;49.710;8.842;2022-07-24T07:52:05;99428.94;;;25.47;54.33
52927;BME280;40783;49.710;8.842;2022-07-24T07:54:30;99430.00;;;25.12;52.65
52927;BME280;40783;49.710;8.842;2022-07-24T07:56:58;99426.28;;;25.52;54.12
52927;BME280;40783;49.710;8.842;2022-07-24T07:59:26;99429.41;;;25.78;52.33
52927;BME280;40783;49.710;8.842;2022-07-24T08:01:51;99433.72;;;25.74;52.91
52927;BME280;40783;49.710;8.842;2022-07-24T08:04:17;99437.72;;;25.49;51.33
52927;BME280;40783;49.710;8.842;2022-07-24T08:06:42;99442.19;;;25.38;52.79
52927;BME280;40783;49.710;8.842;2022-07-24T08:09:10;99423.94;;;25.10;52.43
52927;BME280;40783;49.710;8.842;2022-07-24T08:11:38;99430.41;;;25.03;53.98
52927;BME280;40783;49.710;8.842;2022-07-24T08:14:06;99427.09;;;25.18;57.00
52927;BME280;40783;49.710;8.842;2022-07-24T08:16:33;99432.06;;;25.04;56.44
52927;BME280;40783;49.710;8.842;2022-07-24T08:18:59;99441.25;;;24.69;57.44
52927;BME280;40783;49.710;8.842;2022-07-24T08:21:24;99433.13;;;24.86;57.37
52927;BME280;40783;49.710;8.842;2022-07-24T08:23:50;99430.75;;;25.07;54.34
52927;BME280;40783;49.710;8.842;2022-07-24T08:26:15;99431.56;;;25.08;53.54
52927;BME280;40783;49.710;8.842;2022-07-24T08:28:41;99435.16;;;25.25;55.87
52927;BME280;40783;49.710;8.842;2022-07-24T08:31:06;99436.94;;;25.02;56.45
52927;BME280;40783;49.710;8.842;2022-07-24T08:33:32;99436.03;;;24.97;57.25
52927;BME280;40783;49.710;8.842;2022-07-24T08:35:59;99439.19;;;24.48;58.86
52927;BME280;40783;49.710;8.842;2022-07-24T08:38:25;99432.25;;;24.57;57.04
52927;BME280;40783;49.710;8.842;2022-07-24T08:40:50;99435.09;;;24.62;56.54
52927;BME280;40783;49.710;8.842;2022-07-24T08:43:18;99429.22;;;24.82;56.34
52927;BME280;40783;49.710;8.842;2022-07-24T08:45:44;99428.03;;;24.78;55.06
52927;BME280;40783;49.710;8.842;2022-07-24T08:48:10;99423.66;;;24.94;54.20
52927;BME280;40783;49.710;8.842;2022-07-24T08:50:40;99430.06;;;24.83;56.79
52927;BME280;40783;49.710;8.842;2022-07-24T08:53:07;99429.72;;;24.96;56.26
52927;BME280;40783;49.710;8.842;2022-07-24T08:55:36;99430.75;;;25.24;55.38
52927;BME280;40783;49.710;8.842;2022-07-24T08:58:04;99429.09;;;25.23;54.81
52927;BME280;40783;49.710;8.842;2022-07-24T09:00:32;99432.22;;;25.32;55.35
52927;BME280;40783;49.710;8.842;2022-07-24T09:03:00;99425.28;;;25.24;57.26
52927;BME280;40783;49.710;8.842;2022-07-24T09:05:29;99419.78;;;24.90;56.40
52927;BME280;40783;49.710;8.842;2022-07-24T09:10:33;99421.31;;;25.66;53.14
52927;BME280;40783;49.710;8.842;2022-07-24T09:13:14;99420.63;;;25.42;51.81
52927;BME280;40783;49.710;8.842;2022-07-24T09:15:48;99416.31;;;25.46;51.19
52927;BME280;40783;49.710;8.842;2022-07-24T09:18:36;99415.16;;;25.42;53.91
52927;BME280;40783;49.710;8.842;2022-07-24T09:21:12;99416.13;;;25.01;56.10
52927;BME280;40783;49.710;8.842;2022-07-24T09:23:39;99406.88;;;25.37;56.22
52927;BME280;40783;49.710;8.842;2022-07-24T09:26:05;99415.97;;;25.59;50.26
52927;BME280;40783;49.710;8.842;2022-07-24T09:28:49;99417.78;;;25.71;51.80
52927;BME280;40783;49.710;8.842;2022-07-24T09:31:18;99414.66;;;25.45;51.63
52927;BME280;40783;49.710;8.842;2022-07-24T09:33:43;99413.03;;;25.83;50.98
52927;BME280;40783;49.710;8.842;2022-07-24T09:36:14;99412.63;;;25.91;48.88
52927;BME280;40783;49.710;8.842;2022-07-24T09:38:47;99414.13;;;25.82;50.03
52927;BME280;40783;49.710;8.842;2022-07-24T09:41:18;99411.25;;;25.72;51.61
52927;BME280;40783;49.710;8.842;2022-07-24T09:43:44;99419.75;;;25.92;51.40
52927;BME280;40783;49.710;8.842;2022-07-24T09:46:13;99410.25;;;26.00;52.85
52927;BME280;40783;49.710;8.842;2022-07-24T09:48:58;99407.47;;;26.17;54.39
52927;BME280;40783;49.710;8.842;2022-07-24T09:51:28;99406.06;;;26.37;55.03
52927;BME280;40783;49.710;8.842;2022-07-24T09:53:56;99403.84;;;26.34;52.47
52927;BME280;40783;49.710;8.842;2022-07-24T09:56:22;99405.25;;;26.14;50.60
52927;BME280;40783;49.710;8.842;2022-07-24T09:58:53;99403.91;;;26.17;51.95
52927;BME280;40783;49.710;8.842;2022-07-24T10:01:25;99402.81;;;26.40;52.50
52927;BME280;40783;49.710;8.842;2022-07-24T10:03:52;99400.44;;;26.04;52.68
52927;BME280;40783;49.710;8.842;2022-07-24T10:06:23;99392.97;;;26.00;54.71
52927;BME280;40783;49.710;8.842;2022-07-24T10:08:51;99403.16;;;25.82;54.56
52927;BME280;40783;49.710;8.842;2022-07-24T10:11:18;99401.09;;;26.12;53.01
52927;BME280;40783;49.710;8.842;2022-07-24T10:13:44;99394.47;;;26.30;49.04
52927;BME280;40783;49.710;8.842;2022-07-24T10:16:20;99391.91;;;26.45;53.57
52927;BME280;40783;49.710;8.842;2022-07-24T10:26:38;99396.09;;;26.53;50.30
52927;BME280;40783;49.710;8.842;2022-07-24T10:31:49;99389.13;;;26.95;50.07
52927;BME280;40783;49.710;8.842;2022-07-24T10:34:20;99384.38;;;26.63;53.00
52927;BME280;40783;49.710;8.842;2022-07-24T10:39:30;99383.34;;;26.96;49.52
52927;BME280;40783;49.710;8.842;2022-07-24T10:42:04;99377.13;;;27.06;49.38
52927;BME280;40783;49.710;8.842;2022-07-24T10:44:30;99380.94;;;27.00;49.88
52927;BME280;40783;49.710;8.842;2022-07-24T10:47:00;99382.09;;;27.09;49.39
52927;BME280;40783;49.710;8.842;2022-07-24T10:49:47;99376.75;;;27.30;51.60
52927;BME280;40783;49.710;8.842;2022-07-24T10:52:26;99371.34;;;27.40;47.16
52927;BME280;40783;49.710;8.842;2022-07-24T10:57:57;99363.06;;;27.35;48.63
52927;BME280;40783;49.710;8.842;2022-07-24T11:00:34;99368.31;;;27.42;47.90
52927;BME280;40783;49.710;8.842;2022-07-24T11:03:05;99362.63;;;27.49;47.56
52927;BME280;40783;49.710;8.842;2022-07-24T11:10:53;99353.66;;;27.26;47.37
52927;BME280;40783;49.710;8.842;2022-07-24T11:21:48;99349.34;;;27.89;47.00
52927;BME280;40783;49.710;8.842;2022-07-24T11:24:26;99349.66;;;27.92;48.38
52927;BME280;40783;49.710;8.842;2022-07-24T11:29:25;99345.22;;;27.38;45.77
52927;BME280;40783;49.710;8.842;2022-07-24T11:31:58;99343.34;;;27.44;46.74
52927;BME280;40783;49.710;8.842;2022-07-24T11:34:25;99333.44;;;27.37;45.97
52927;BME280;40783;49.710;8.842;2022-07-24T11:36:52;99336.06;;;27.22;47.18
52927;BME280;40783;49.710;8.842;2022-07-24T11:39:25;99335.25;;;26.84;50.06
52927;BME280;40783;49.710;8.842;2022-07-24T11:41:59;99325.44;;;26.93;50.70
52927;BME280;40783;49.710;8.842;2022-07-24T11:44:33;99331.06;;;27.14;50.63
52927;BME280;40783;49.710;8.842;2022-07-24T11:47:05;99320.19;;;27.29;50.47
52927;BME280;40783;49.710;8.842;2022-07-24T11:49:30;99322.22;;;27.06;51.46
52927;BME280;40783;49.710;8.842;2022-07-24T11:52:03;99320.13;;;27.19;49.30
52927;BME280;40783;49.710;8.842;2022-07-24T11:54:29;99317.03;;;27.48;45.96
52927;BME280;40783;49.710;8.842;2022-07-24T11:56:56;99306.66;;;27.65;44.90
52927;BME280;40783;49.710;8.842;2022-07-24T11:59:27;99307.56;;;27.28;46.95
52927;BME280;40783;49.710;8.842;2022-07-24T12:02:04;99305.72;;;27.44;46.25
52927;BME280;40783;49.710;8.842;2022-07-24T12:04:30;99296.88;;;27.90;45.05
52927;BME280;40783;49.710;8.842;2022-07-24T12:06:55;99300.13;;;27.77;44.46
52927;BME280;40783;49.710;8.842;2022-07-24T12:09:23;99290.16;;;27.60;44.33
52927;BME280;40783;49.710;8.842;2022-07-24T12:11:48;99283.56;;;27.51;46.05
52927;BME280;40783;49.710;8.842;2022-07-24T12:14:18;99291.78;;;27.56;46.96
52927;BME280;40783;49.710;8.842;2022-07-24T12:16:51;99284.19;;;27.79;45.23
52927;BME280;40783;49.710;8.842;2022-07-24T12:19:22;99275.94;;;27.74;48.38
52927;BME280;40783;49.710;8.842;2022-07-24T12:21:50;99285.03;;;27.79;45.28
52927;BME280;40783;49.710;8.842;2022-07-24T12:24:16;99276.44;;;27.60;49.07
52927;BME280;40783;49.710;8.842;2022-07-24T12:29:16;99272.16;;;27.95;46.17
52927;BME280;40783;49.710;8.842;2022-07-24T12:31:47;99275.44;;;27.87;47.49
52927;BME280;40783;49.710;8.842;2022-07-24T12:34:13;99267.19;;;27.82;47.44
52927;BME280;40783;49.710;8.842;2022-07-24T12:36:40;99259.81;;;28.03;47.85
52927;BME280;40783;49.710;8.842;2022-07-24T12:39:07;99262.94;;;28.58;45.52
52927;BME280;40783;49.710;8.842;2022-07-24T12:41:42;99259.63;;;28.46;45.53
52927;BME280;40783;49.710;8.842;2022-07-24T12:44:07;99245.88;;;28.46;45.29
52927;BME280;40783;49.710;8.842;2022-07-24T12:46:40;99251.63;;;28.24;46.95
52927;BME280;40783;49.710;8.842;2022-07-24T12:49:07;99253.00;;;28.26;44.86
52927;BME280;40783;49.710;8.842;2022-07-24T12:54:23;99248.06;;;28.49;45.23
52927;BME280;40783;49.710;8.842;2022-07-24T12:56:54;99235.97;;;28.45;42.38
52927;BME280;40783;49.710;8.842;2022-07-24T13:01:53;99245.31;;;28.44;45.85
52927;BME280;40783;49.710;8.842;2022-07-24T13:04:21;99239.75;;;28.03;46.46
52927;BME280;40783;49.710;8.842;2022-07-24T13:06:50;99234.31;;;28.54;47.23
52927;BME280;40783;49.710;8.842;2022-07-24T13:09:17;99239.78;;;28.70;44.83
52927;BME280;40783;49.710;8.842;2022-07-24T13:11:44;99229.66;;;28.76;42.88
52927;BME280;40783;49.710;8.842;2022-07-24T13:14:11;99235.41;;;28.79;43.22
52927;BME280;40783;49.710;8.842;2022-07-24T13:16:39;99230.47;;;28.50;40.77
52927;BME280;40783;49.710;8.842;2022-07-24T13:19:06;99223.84;;;28.62;42.48
52927;BME280;40783;49.710;8.842;2022-07-24T13:21:32;99229.56;;;27.93;44.88
52927;BME280;40783;49.710;8.842;2022-07-24T13:24:01;99218.91;;;28.17;43.15
52927;BME280;40783;49.710;8.842;2022-07-24T13:26:26;99213.34;;;27.96;42.02
52927;BME280;40783;49.710;8.842;2022-07-24T13:28:52;99208.44;;;28.14;41.61
52927;BME280;40783;49.710;8.842;2022-07-24T13:31:17;99217.81;;;28.44;40.39
52927;BME280;40783;49.710;8.842;2022-07-24T13:33:47;99214.50;;;28.42;43.88
52927;BME280;40783;49.710;8.842;2022-07-24T13:36:13;99213.97;;;28.61;42.70
52927;BME280;40783;49.710;8.842;2022-07-24T13:38:43;99203.47;;;28.68;40.85
52927;BME280;40783;49.710;8.842;2022-07-24T13:41:14;99204.63;;;28.46;41.96
52927;BME280;40783;49.710;8.842;2022-07-24T13:43:42;99201.03;;;28.61;40.72
52927;BME280;40783;49.710;8.842;2022-07-24T13:46:10;99190.03;;;28.82;41.16
52927;BME280;40783;49.710;8.842;2022-07-24T13:48:35;99191.38;;;28.69;42.13
52927;BME280;40783;49.710;8.842;2022-07-24T13:51:01;99193.31;;;28.84;40.66
52927;BME280;40783;49.710;8.842;2022-07-24T13:53:26;99183.13;;;28.84;40.23
52927;BME280;40783;49.710;8.842;2022-07-24T13:55:54;99174.31;;;28.82;40.82
52927;BME280;40783;49.710;8.842;2022-07-24T13:58:20;99177.34;;;28.86;39.21
52927;BME280;40783;49.710;8.842;2022-07-24T14:00:45;99175.16;;;28.83;39.93
52927;BME280;40783;49.710;8.842;2022-07-24T14:03:11;99170.41;;;29.04;38.15
52927;BME280;40783;49.710;8.842;2022-07-24T14:05:36;99164.06;;;29.03;37.83
52927;BME280;40783;49.710;8.842;2022-07-24T14:08:02;99156.06;;;29.12;40.54
52927;BME280;40783;49.710;8.842;2022-07-24T14:10:27;99150.47;;;29.28;37.62
52927;BME280;40783;49.710;8.842;2022-07-24T14:12:55;99161.56;;;29.12;39.50
52927;BME280;40783;49.710;8.842;2022-07-24T14:15:23;99155.00;;;29.08;39.98
52927;BME280;40783;49.710;8.842;2022-07-24T14:17:51;99150.94;;;28.85;42.44
52927;BME280;40783;49.710;8.842;2022-07-24T14:20:16;99142.13;;;28.83;42.13
52927;BME280;40783;49.710;8.842;2022-07-24T14:22:44;99138.53;;;28.87;41.94
52927;BME280;40783;49.710;8.842;2022-07-24T14:25:09;99137.16;;;28.75;43.38
52927;BME280;40783;49.710;8.842;2022-07-24T14:27:35;99138.53;;;28.72;42.33
52927;BME280;40783;49.710;8.842;2022-07-24T14:30:03;99136.31;;;28.90;41.76
52927;BME280;40783;49.710;8.842;2022-07-24T14:32:35;99138.50;;;28.98;42.63
52927;BME280;40783;49.710;8.842;2022-07-24T14:35:00;99143.41;;;29.11;42.32
52927;BME280;40783;49.710;8.842;2022-07-24T14:37:30;99137.53;;;28.21;44.20
52927;BME280;40783;49.710;8.842;2022-07-24T14:39:55;99123.69;;;28.68;41.48
52927;BME280;40783;49.710;8.842;2022-07-24T14:42:26;99125.81;;;29.02;39.32
52927;BME280;40783;49.710;8.842;2022-07-24T14:44:51;99125.84;;;28.97;42.20
52927;BME280;40783;49.710;8.842;2022-07-24T14:47:19;99120.69;;;28.59;43.49
52927;BME280;40783;49.710;8.842;2022-07-24T14:49:44;99113.22;;;28.80;40.30
52927;BME280;40783;49.710;8.842;2022-07-24T14:52:10;99119.56;;;28.81;39.91
52927;BME280;40783;49.710;8.842;2022-07-24T14:54:35;99110.66;;;29.05;41.33
52927;BME280;40783;49.710;8.842;2022-07-24T14:57:03;99116.19;;;28.94;40.96
52927;BME280;40783;49.710;8.842;2022-07-24T14:59:29;99111.56;;;28.84;42.67
52927;BME280;40783;49.710;8.842;2022-07-24T15:01:54;99112.75;;;28.37;42.14
52927;BME280;40783;49.710;8.842;2022-07-24T15:04:22;99108.34;;;28.56;40.37
52927;BME280;40783;49.710;8.842;2022-07-24T15:06:47;99106.41;;;28.57;41.01
52927;BME280;40783;49.710;8.842;2022-07-24T15:09:15;99098.38;;;28.66;41.13
52927;BME280;40783;49.710;8.842;2022-07-24T15:11:41;99100.88;;;28.78;40.30
52927;BME280;40783;49.710;8.842;2022-07-24T15:14:06;99099.22;;;28.82;39.83
52927;BME280;40783;49.710;8.842;2022-07-24T15:16:32;99094.25;;;28.84;39.84
52927;BME280;40783;49.710;8.842;2022-07-24T15:18:59;99086.56;;;28.70;41.10
52927;BME280;40783;49.710;8.842;2022-07-24T15:21:27;99081.53;;;28.93;39.27
52927;BME280;40783;49.710;8.842;2022-07-24T15:23:53;99090.06;;;28.92;39.10
52927;BME280;40783;49.710;8.842;2022-07-24T15:26:18;99084.63;;;28.71;38.39
52927;BME280;40783;49.710;8.842;2022-07-24T15:28:43;99074.25;;;28.47;41.80
52927;BME280;40783;49.710;8.842;2022-07-24T15:31:09;99088.31;;;28.14;42.12
52927;BME280;40783;49.710;8.842;2022-07-24T15:33:35;99078.44;;;28.19;42.17
52927;BME280;40783;49.710;8.842;2022-07-24T15:36:01;99073.16;;;28.43;41.75
52927;BME280;40783;49.710;8.842;2022-07-24T15:38:28;99065.69;;;28.49;41.49
52927;BME280;40783;49.710;8.842;2022-07-24T15:40:56;99077.53;;;28.49;39.52
52927;BME280;40783;49.710;8.842;2022-07-24T15:43:22;99073.13;;;28.53;39.86
52927;BME280;40783;49.710;8.842;2022-07-24T15:45:47;99063.78;;;28.49;40.29
52927;BME280;40783;49.710;8.842;2022-07-24T15:48:12;99058.31;;;28.44;39.92
52927;BME280;40783;49.710;8.842;2022-07-24T15:50:40;99058.31;;;28.44;40.68
52927;BME280;40783;49.710;8.842;2022-07-24T15:53:08;99059.41;;;28.48;42.22
52927;BME280;40783;49.710;8.842;2022-07-24T15:55:33;99052.81;;;28.44;40.27
52927;BME280;40783;49.710;8.842;2022-07-24T15:58:01;99052.81;;;28.44;38.51
52927;BME280;40783;49.710;8.842;2022-07-24T16:00:27;99051.66;;;28.61;37.83
52927;BME280;40783;49.710;8.842;2022-07-24T16:02:55;99048.03;;;28.70;39.60
52927;BME280;40783;49.710;8.842;2022-07-24T16:05:20;99046.72;;;28.57;39.67
52927;BME280;40783;49.710;8.842;2022-07-24T16:07:50;99043.41;;;28.55;40.60
52927;BME280;40783;49.710;8.842;2022-07-24T16:10:16;99038.41;;;28.63;39.19
52927;BME280;40783;49.710;8.842;2022-07-24T16:12:44;99038.72;;;28.56;38.94
52927;BME280;40783;49.710;8.842;2022-07-24T16:15:12;99041.25;;;28.47;40.11
52927;BME280;40783;49.710;8.842;2022-07-24T16:17:38;99031.91;;;28.38;39.85
52927;BME280;40783;49.710;8.842;2022-07-24T16:20:05;99026.19;;;28.24;39.17
52927;BME280;40783;49.710;8.842;2022-07-24T16:22:34;99024.22;;;28.29;39.62
52927;BME280;40783;49.710;8.842;2022-07-24T16:25:05;99024.50;;;28.33;39.29
52927;BME280;40783;49.710;8.842;2022-07-24T16:27:31;99017.06;;;28.44;39.07
52927;BME280;40783;49.710;8.842;2022-07-24T16:29:57;99018.72;;;28.40;39.03
52927;BME280;40783;49.710;8.842;2022-07-24T16:32:23;99015.09;;;28.44;39.81
52927;BME280;40783;49.710;8.842;2022-07-24T16:34:48;99018.97;;;28.38;39.16
52927;BME280;40783;49.710;8.842;2022-07-24T16:37:16;99013.47;;;28.38;40.29
52927;BME280;40783;49.710;8.842;2022-07-24T16:39:44;99014.88;;;28.36;39.54
52927;BME280;40783;49.710;8.842;2022-07-24T16:42:11;99003.88;;;28.31;38.13
52927;BME280;40783;49.710;8.842;2022-07-24T16:44:39;99009.41;;;28.25;39.95
52927;BME280;40783;49.710;8.842;2022-07-24T16:47:04;99011.56;;;28.34;39.49
52927;BME280;40783;49.710;8.842;2022-07-24T16:49:30;99003.31;;;28.34;38.72
52927;BME280;40783;49.710;8.842;2022-07-24T16:51:55;98992.81;;;28.51;37.75
52927;BME280;40783;49.710;8.842;2022-07-24T16:54:21;98991.47;;;28.43;39.42
52927;BME280;40783;49.710;8.842;2022-07-24T16:56:48;98990.72;;;28.22;39.89
52927;BME280;40783;49.710;8.842;2022-07-24T16:59:16;98992.38;;;28.18;39.45
52927;BME280;40783;49.710;8.842;2022-07-24T17:01:41;98990.72;;;28.22;39.41
52927;BME280;40783;49.710;8.842;2022-07-24T17:04:09;98997.03;;;28.33;38.57
52927;BME280;40783;49.710;8.842;2022-07-24T17:06:35;98992.88;;;28.31;39.28
52927;BME280;40783;49.710;8.842;2022-07-24T17:09:00;98995.09;;;28.28;39.99
52927;BME280;40783;49.710;8.842;2022-07-24T17:11:26;98986.28;;;28.32;38.33
52927;BME280;40783;49.710;8.842;2022-07-24T17:13:52;98992.88;;;28.31;39.27
52927;BME280;40783;49.710;8.842;2022-07-24T17:16:18;98981.13;;;28.14;39.70
52927;BME280;40783;49.710;8.842;2022-07-24T17:18:43;98985.22;;;28.22;38.06
52927;BME280;40783;49.710;8.842;2022-07-24T17:21:09;98986.25;;;28.42;37.75
52927;BME280;40783;49.710;8.842;2022-07-24T17:23:34;98986.03;;;28.23;38.55
52927;BME280;40783;49.710;8.842;2022-07-24T17:26:00;98992.31;;;28.34;38.18
52927;BME280;40783;49.710;8.842;2022-07-24T17:28:26;98987.97;;;28.22;39.86
52927;BME280;40783;49.710;8.842;2022-07-24T17:30:52;98982.47;;;28.12;39.84
52927;BME280;40783;49.710;8.842;2022-07-24T17:33:18;98997.34;;;28.06;39.88
52927;BME280;40783;49.710;8.842;2022-07-24T17:35:45;98984.16;;;28.03;39.08
52927;BME280;40783;49.710;8.842;2022-07-24T17:38:11;98988.00;;;27.96;38.66
52927;BME280;40783;49.710;8.842;2022-07-24T17:40:37;98988.00;;;27.96;38.88
52927;BME280;40783;49.710;8.842;2022-07-24T17:43:03;98993.47;;;28.17;40.16
52927;BME280;40783;49.710;8.842;2022-07-24T17:45:31;98990.16;;;28.10;40.30
52927;BME280;40783;49.710;8.842;2022-07-24T17:47:59;98990.16;;;28.10;40.16
52927;BME280;40783;49.710;8.842;2022-07-24T17:50:27;98991.25;;;28.09;40.91
52927;BME280;40783;49.710;8.842;2022-07-24T17:52:55;98984.72;;;27.99;41.36
52927;BME280;40783;49.710;8.842;2022-07-24T17:55:23;98984.72;;;27.94;41.42
52927;BME280;40783;49.710;8.842;2022-07-24T17:57:50;98981.97;;;27.89;41.77
52927;BME280;40783;49.710;8.842;2022-07-24T18:00:17;98981.41;;;27.87;42.21
52927;BME280;40783;49.710;8.842;2022-07-24T18:02:43;98978.13;;;27.85;42.40
52927;BME280;40783;49.710;8.842;2022-07-24T18:05:10;98984.72;;;27.84;42.31
52927;BME280;40783;49.710;8.842;2022-07-24T18:07:37;98986.38;;;27.80;41.28
52927;BME280;40783;49.710;8.842;2022-07-24T18:10:04;98985.56;;;27.64;42.40
52927;BME280;40783;49.710;8.842;2022-07-24T18:12:35;98978.69;;;27.56;42.81
52927;BME280;40783;49.710;8.842;2022-07-24T18:15:03;98984.72;;;27.43;43.45
52927;BME280;40783;49.710;8.842;2022-07-24T18:17:29;98988.00;;;27.29;43.73
52927;BME280;40783;49.710;8.842;2022-07-24T18:19:54;98984.69;;;27.22;44.65
52927;BME280;40783;49.710;8.842;2022-07-24T18:22:20;98991.00;;;27.12;44.75
52927;BME280;40783;49.710;8.842;2022-07-24T18:24:51;98991.81;;;27.02;45.28
52927;BME280;40783;49.710;8.842;2022-07-24T18:27:18;98984.09;;;26.89;45.53
52927;BME280;40783;49.710;8.842;2022-07-24T18:29:44;98985.69;;;26.79;46.07
52927;BME280;40783;49.710;8.842;2022-07-24T18:32:12;98989.50;;;26.73;46.02
52927;BME280;40783;49.710;8.842;2022-07-24T18:34:38;98985.38;;;26.71;46.87
52927;BME280;40783;49.710;8.842;2022-07-24T18:37:04;98991.09;;;26.64;46.84
52927;BME280;40783;49.710;8.842;2022-07-24T18:39:29;98989.69;;;26.51;46.09
52927;BME280;40783;49.710;8.842;2022-07-24T18:41:57;98987.22;;;26.49;47.42
52927;BME280;40783;49.710;8.842;2022-07-24T18:44:25;98989.41;;;26.42;46.87
52927;BME280;40783;49.710;8.842;2022-07-24T18:46:51;98985.22;;;26.34;46.39
52927;BME280;40783;49.710;8.842;2022-07-24T18:49:16;98982.19;;;26.26;46.64
52927;BME280;40783;49.710;8.842;2022-07-24T18:51:42;98976.66;;;26.20;47.04
52927;BME280;40783;49.710;8.842;2022-07-24T18:54:09;98977.72;;;26.14;48.54
52927;BME280;40783;49.710;8.842;2022-07-24T18:56:37;98978.56;;;26.15;48.46
52927;BME280;40783;49.710;8.842;2022-07-24T18:59:05;98990.34;;;26.15;49.48
52927;BME280;40783;49.710;8.842;2022-07-24T19:01:30;98986.94;;;26.03;50.17
52927;BME280;40783;49.710;8.842;2022-07-24T19:04:00;98984.41;;;25.91;50.81
52927;BME280;40783;49.710;8.842;2022-07-24T19:06:26;98981.03;;;25.78;50.83
52927;BME280;40783;49.710;8.842;2022-07-24T19:08:53;98989.53;;;25.77;50.72
52927;BME280;40783;49.710;8.842;2022-07-24T19:11:20;98979.63;;;25.71;51.17
52927;BME280;40783;49.710;8.842;2022-07-24T19:13:46;98983.44;;;25.70;50.96
52927;BME280;40783;49.710;8.842;2022-07-24T19:16:14;98983.31;;;25.54;51.43
52927;BME280;40783;49.710;8.842;2022-07-24T19:18:39;98994.22;;;25.49;52.17
52927;BME280;40783;49.710;8.842;2022-07-24T19:21:06;98988.03;;;25.59;52.28
52927;BME280;40783;49.710;8.842;2022-07-24T19:23:31;99000.13;;;25.36;54.21
52927;BME280;40783;49.710;8.842;2022-07-24T19:25:59;98992.47;;;25.38;53.44
52927;BME280;40783;49.710;8.842;2022-07-24T19:28:30;98984.84;;;25.40;53.31
52927;BME280;40783;49.710;8.842;2022-07-24T19:30:55;98993.00;;;25.34;53.81
52927;BME280;40783;49.710;8.842;2022-07-24T19:33:25;98992.50;;;25.10;54.38
52927;BME280;40783;49.710;8.842;2022-07-24T19:35:51;98994.72;;;25.13;54.05
52927;BME280;40783;49.710;8.842;2022-07-24T19:38:19;98999.63;;;25.11;54.60
52927;BME280;40783;49.710;8.842;2022-07-24T19:40:47;99001.56;;;25.16;54.72
52927;BME280;40783;49.710;8.842;2022-07-24T19:43:12;99001.06;;;25.19;54.76
52927;BME280;40783;49.710;8.842;2022-07-24T19:45:38;98998.53;;;25.12;54.91
52927;BME280;40783;49.710;8.842;2022-07-24T19:48:05;98995.47;;;25.09;55.07
52927;BME280;40783;49.710;8.842;2022-07-24T19:50:37;98999.84;;;25.10;55.14
52927;BME280;40783;49.710;8.842;2022-07-24T19:53:05;99006.47;;;25.14;55.38
52927;BME280;40783;49.710;8.842;2022-07-24T19:55:33;98988.75;;;24.94;55.76
52927;BME280;40783;49.710;8.842;2022-07-24T19:57:58;98998.56;;;24.90;55.64
52927;BME280;40783;49.710;8.842;2022-07-24T20:00:24;98993.09;;;24.90;55.44
52927;BME280;40783;49.710;8.842;2022-07-24T20:02:51;98994.72;;;24.91;55.47
52927;BME280;40783;49.710;8.842;2022-07-24T20:05:16;98996.94;;;24.89;55.85
52927;BME280;40783;49.710;8.842;2022-07-24T20:07:42;99000.75;;;24.88;56.29
52927;BME280;40783;49.710;8.842;2022-07-24T20:10:10;98993.63;;;24.87;56.53
52927;BME280;40783;49.710;8.842;2022-07-24T20:12:35;98994.00;;;24.73;57.10
52927;BME280;40783;49.710;8.842;2022-07-24T20:15:01;98997.31;;;24.76;56.58
52927;BME280;40783;49.710;8.842;2022-07-24T20:17:30;98997.31;;;24.76;56.64
52927;BME280;40783;49.710;8.842;2022-07-24T20:19:58;98991.75;;;24.70;56.93
52927;BME280;40783;49.710;8.842;2022-07-24T20:22:23;98991.19;;;24.68;56.95
52927;BME280;40783;49.710;8.842;2022-07-24T20:24:51;98988.06;;;24.59;57.42
52927;BME280;40783;49.710;8.842;2022-07-24T20:27:19;98994.34;;;24.60;57.24
52927;BME280;40783;49.710;8.842;2022-07-24T20:29:44;98996.38;;;24.48;57.65
52927;BME280;40783;49.710;8.842;2022-07-24T20:32:10;98988.25;;;24.53;57.59
52927;BME280;40783;49.710;8.842;2022-07-24T20:34:37;98980.13;;;24.58;57.58
52927;BME280;40783;49.710;8.842;2022-07-24T20:37:03;98990.53;;;24.61;57.84
52927;BME280;40783;49.710;8.842;2022-07-24T20:39:39;98981.34;;;24.45;58.53
52927;BME280;40783;49.710;8.842;2022-07-24T20:42:06;98981.19;;;24.35;58.36
52927;BME280;40783;49.710;8.842;2022-07-24T20:44:31;98984.44;;;24.32;58.46